createdAt,value
2023-03-01T00:00:17.052Z,29.897
2023-03-01T00:05:17.200Z,29.901
2023-03-01T00:10:17.134Z,29.909
2023-03-01T00:15:17.143Z,29.910
2023-03-01T00:20:17.088Z,29.914
2023-03-01T00:25:17.176Z,29.920
2023-03-01T00:30:17.179Z,29.924
2023-03-01T00:35:17.213Z,29.925
2023-03-01T00:40:17.123Z,29.927
2023-03-01T00:45:17.179Z,29.934
2023-03-01T00:50:17.125Z,29.932
2023-03-01T00:55:17.241Z,29.931
2023-03-01T01:00:17.272Z,29.935
2023-03-01T01:05:17.148Z,29.934
2023-03-01T01:10:17.164Z,29.941
2023-03-01T01:15:17.191Z,29.945
2023-03-01T01:20:17.363Z,29.941
2023-03-01T01:25:17.300Z,29.944
2023-03-01T01:30:17.243Z,29.941
2023-03-01T01:35:17.231Z,29.941
2023-03-01T01:40:17.319Z,29.940
2023-03-01T01:45:17.344Z,29.937
2023-03-01T01:50:17.337Z,29.933
2023-03-01T01:55:17.180Z,29.933
2023-03-01T02:00:17.277Z,29.937
2023-03-01T02:05:17.536Z,29.934
2023-03-01T02:10:17.341Z,29.934
2023-03-01T02:15:17.330Z,29.936
2023-03-01T02:20:17.301Z,29.940
2023-03-01T02:25:17.282Z,29.942
2023-03-01T02:30:17.464Z,29.948
2023-03-01T02:35:17.567Z,29.948
2023-03-01T02:40:17.411Z,29.950
2023-03-01T02:45:15.412Z,29.949
2023-03-01T02:50:15.401Z,29.952
2023-03-01T02:55:15.380Z,29.953
2023-03-01T03:00:15.381Z,29.948
2023-03-01T03:05:15.632Z,29.954
2023-03-01T03:10:15.421Z,29.953
2023-03-01T03:15:15.522Z,29.955
2023-03-01T03:20:15.510Z,29.954
2023-03-01T03:25:15.462Z,29.954
2023-03-01T03:30:15.478Z,29.956
2023-03-01T03:35:15.478Z,29.959
2023-03-01T03:40:15.521Z,29.961
2023-03-01T03:45:15.526Z,29.965
2023-03-01T03:50:15.604Z,29.966
2023-03-01T03:55:15.691Z,29.969
2023-03-01T04:00:15.850Z,29.970
2023-03-01T04:05:15.548Z,29.970
2023-03-01T04:10:15.730Z,29.969
2023-03-01T04:15:15.707Z,29.964
2023-03-01T04:20:15.607Z,29.962
2023-03-01T04:25:15.631Z,29.961
2023-03-01T04:30:15.693Z,29.961
2023-03-01T04:35:15.613Z,29.960
2023-03-01T04:40:15.676Z,29.965
2023-03-01T04:45:15.687Z,29.968
2023-03-01T04:50:15.704Z,29.972
2023-03-01T04:55:15.965Z,29.970
2023-03-01T05:00:16.714Z,29.974
2023-03-01T05:05:16.863Z,29.971
2023-03-01T05:10:16.703Z,29.971
2023-03-01T05:15:16.804Z,29.972
2023-03-01T05:20:16.832Z,29.971
2023-03-01T05:25:16.884Z,29.970
2023-03-01T05:30:16.844Z,29.965
2023-03-01T05:35:16.779Z,29.966
2023-03-01T05:40:16.779Z,29.967
2023-03-01T05:45:16.797Z,29.967
2023-03-01T05:50:16.936Z,29.972
2023-03-01T05:55:16.790Z,29.971
2023-03-01T06:00:16.900Z,29.967
2023-03-01T06:05:16.929Z,29.971
2023-03-01T06:10:16.765Z,29.971
2023-03-01T06:15:16.835Z,29.978
2023-03-01T06:20:16.973Z,29.978
2023-03-01T06:25:16.865Z,29.985
2023-03-01T06:30:16.984Z,29.986
2023-03-01T06:35:17.064Z,29.989
2023-03-01T06:40:16.979Z,29.987
2023-03-01T06:45:16.826Z,29.994
2023-03-01T06:50:17.022Z,29.997
2023-03-01T06:55:16.963Z,29.997
2023-03-01T07:00:17.047Z,29.998
2023-03-01T07:05:17.024Z,29.998
2023-03-01T07:10:16.951Z,29.997
2023-03-01T07:15:16.970Z,30.001
2023-03-01T07:20:17.050Z,30.004
2023-03-01T07:25:16.975Z,30.004
2023-03-01T07:30:17.090Z,30.006
2023-03-01T07:35:17.019Z,30.007
2023-03-01T07:40:17.087Z,30.007
2023-03-01T07:45:17.098Z,30.010
2023-03-01T07:50:17.119Z,30.011
2023-03-01T07:55:17.041Z,30.017
2023-03-01T08:00:17.198Z,30.018
2023-03-01T08:05:17.043Z,30.021
2023-03-01T08:10:17.057Z,30.025
2023-03-01T08:15:17.123Z,30.031
2023-03-01T08:20:19.696Z,30.036
2023-03-01T08:25:17.200Z,30.035
2023-03-01T08:30:17.132Z,30.036
2023-03-01T08:35:17.101Z,30.037
2023-03-01T08:40:17.204Z,30.038
2023-03-01T08:45:17.170Z,30.040
2023-03-01T08:50:17.244Z,30.040
2023-03-01T08:55:17.390Z,30.043
2023-03-01T09:00:17.314Z,30.044
2023-03-01T09:05:19.947Z,30.044
2023-03-01T09:10:17.273Z,30.049
2023-03-01T09:15:17.194Z,30.054
2023-03-01T09:20:17.227Z,30.057
2023-03-01T09:25:17.265Z,30.060
2023-03-01T09:30:17.278Z,30.069
2023-03-01T09:35:17.296Z,30.071
2023-03-01T09:40:17.294Z,30.076
2023-03-01T09:45:17.334Z,30.078
2023-03-01T09:50:17.465Z,30.080
2023-03-01T09:55:17.322Z,30.084
2023-03-01T10:00:17.364Z,30.087
2023-03-01T10:05:17.381Z,30.085
2023-03-01T10:10:17.500Z,30.087
2023-03-01T10:15:15.432Z,30.089
2023-03-01T10:20:15.532Z,30.088
2023-03-01T10:25:15.392Z,30.089
2023-03-01T10:30:15.393Z,30.090
2023-03-01T10:35:15.533Z,30.093
2023-03-01T10:40:15.739Z,30.092
2023-03-01T10:45:15.426Z,30.097
2023-03-01T10:50:15.559Z,30.096
2023-03-01T10:55:15.453Z,30.097
2023-03-01T11:00:15.485Z,30.102
2023-03-01T11:05:15.564Z,30.106
2023-03-01T11:10:15.526Z,30.104
2023-03-01T11:15:15.584Z,30.108
2023-03-01T11:20:15.643Z,30.108
2023-03-01T11:25:15.550Z,30.114
2023-03-01T11:30:15.559Z,30.115
2023-03-01T11:35:15.775Z,30.119
2023-03-01T11:40:15.737Z,30.120
2023-03-01T11:45:15.747Z,30.121
2023-03-01T11:50:15.624Z,30.125
2023-03-01T11:55:15.707Z,30.125
2023-03-01T12:00:15.729Z,30.132
2023-03-01T12:05:15.668Z,30.133
2023-03-01T12:10:15.729Z,30.139
2023-03-01T12:15:15.704Z,30.137
2023-03-01T12:20:15.779Z,30.147
2023-03-01T12:25:15.755Z,30.152
2023-03-01T12:30:15.899Z,30.154
2023-03-01T12:35:15.720Z,30.156
2023-03-01T12:40:15.832Z,30.156
2023-03-01T12:45:15.850Z,30.158
2023-03-01T12:50:15.800Z,30.158
2023-03-01T12:55:15.821Z,30.160
2023-03-01T13:00:15.741Z,30.161
2023-03-01T13:05:15.780Z,30.164
2023-03-01T13:10:15.778Z,30.167
2023-03-01T13:15:15.766Z,30.168
2023-03-01T13:20:15.840Z,30.168
2023-03-01T13:25:15.920Z,30.168
2023-03-01T13:30:15.785Z,30.166
2023-03-01T13:35:15.899Z,30.164
2023-03-01T13:40:15.950Z,30.164
2023-03-01T13:45:16.049Z,30.165
2023-03-01T13:50:15.979Z,30.163
2023-03-01T13:55:18.960Z,30.158
2023-03-01T14:00:15.918Z,30.159
2023-03-01T14:05:15.897Z,30.162
2023-03-01T14:10:15.906Z,30.162
2023-03-01T14:15:15.990Z,30.160
2023-03-01T14:20:15.931Z,30.163
2023-03-01T14:25:16.004Z,30.165
2023-03-01T14:30:15.994Z,30.168
2023-03-01T14:35:15.997Z,30.169
2023-03-01T14:40:16.166Z,30.168
2023-03-01T14:45:16.042Z,30.170
2023-03-01T14:50:16.117Z,30.169
2023-03-01T14:55:16.100Z,30.168
2023-03-01T15:00:16.078Z,30.168
2023-03-01T15:05:16.044Z,30.167
2023-03-01T15:10:16.106Z,30.157
2023-03-01T15:15:16.179Z,30.155
2023-03-01T15:20:16.046Z,30.151
2023-03-01T15:25:16.101Z,30.152
2023-03-01T15:30:16.117Z,30.150
2023-03-01T15:35:16.087Z,30.148
2023-03-01T15:40:16.172Z,30.150
2023-03-01T15:45:16.171Z,30.150
2023-03-01T15:50:16.202Z,30.153
2023-03-01T15:55:19.387Z,30.161
2023-03-01T16:00:16.271Z,30.167
2023-03-01T16:05:16.205Z,30.169
2023-03-01T16:10:16.136Z,30.169
2023-03-01T16:15:16.148Z,30.165
2023-03-01T16:20:27.110Z,30.163
2023-03-01T16:25:16.218Z,30.162
2023-03-01T16:30:16.390Z,30.160
2023-03-01T16:35:16.305Z,30.156
2023-03-01T16:40:16.277Z,30.150
2023-03-01T16:45:24.336Z,30.148
2023-03-01T16:50:16.302Z,30.143
2023-03-01T16:55:16.340Z,30.142
2023-03-01T17:00:16.526Z,30.134
2023-03-01T17:05:16.300Z,30.132
2023-03-01T17:10:16.247Z,30.132
2023-03-01T17:15:16.451Z,30.128
2023-03-01T17:20:16.357Z,30.130
2023-03-01T17:25:16.407Z,30.132
2023-03-01T17:30:16.403Z,30.132
2023-03-01T17:35:16.477Z,30.127
2023-03-01T17:40:16.532Z,30.127
2023-03-01T17:45:16.423Z,30.135
2023-03-01T17:50:16.392Z,30.131
2023-03-01T17:55:16.601Z,30.132
2023-03-01T18:00:16.452Z,30.129
2023-03-01T18:05:16.465Z,30.128
2023-03-01T18:10:16.438Z,30.131
2023-03-01T18:15:18.557Z,30.125
2023-03-01T18:20:16.605Z,30.128
2023-03-01T18:25:16.600Z,30.130
2023-03-01T18:30:16.455Z,30.128
2023-03-01T18:35:16.481Z,30.122
2023-03-01T18:40:16.681Z,30.124
2023-03-01T18:45:16.496Z,30.124
2023-03-01T18:50:16.533Z,30.127
2023-03-01T18:55:16.701Z,30.127
2023-03-01T19:00:16.491Z,30.126
2023-03-01T19:05:17.596Z,30.123
2023-03-01T19:10:16.695Z,30.119
2023-03-01T19:15:16.561Z,30.118
2023-03-01T19:20:16.607Z,30.120
2023-03-01T19:25:16.677Z,30.119
2023-03-01T19:30:16.656Z,30.125
2023-03-01T19:35:16.579Z,30.128
2023-03-01T19:40:16.596Z,30.125
2023-03-01T19:45:22.422Z,30.127
2023-03-01T19:50:16.667Z,30.125
2023-03-01T19:55:16.608Z,30.124
2023-03-01T20:00:16.639Z,30.122
2023-03-01T20:05:16.771Z,30.122
2023-03-01T20:10:16.854Z,30.124
2023-03-01T20:15:16.846Z,30.121
2023-03-01T20:20:16.690Z,30.112
2023-03-01T20:25:16.875Z,30.117
2023-03-01T20:30:16.738Z,30.112
2023-03-01T20:35:16.832Z,30.109
2023-03-01T20:40:16.919Z,30.105
2023-03-01T20:45:16.778Z,30.104
2023-03-01T20:50:16.843Z,30.104
2023-03-01T20:55:16.861Z,30.096
2023-03-01T21:00:16.944Z,30.093
2023-03-01T21:05:16.827Z,30.090
2023-03-01T21:10:17.171Z,30.083
2023-03-01T21:15:28.325Z,30.099
2023-03-01T21:20:16.931Z,30.105
2023-03-01T21:25:16.985Z,30.113
2023-03-01T21:30:17.187Z,30.115
2023-03-01T21:35:16.964Z,30.117
2023-03-01T21:40:16.893Z,30.127
2023-03-01T21:45:16.944Z,30.137
2023-03-01T21:50:16.931Z,30.133
2023-03-01T21:55:16.919Z,30.127
2023-03-01T22:00:16.940Z,30.123
2023-03-01T22:05:17.009Z,30.124
2023-03-01T22:10:17.097Z,30.119
2023-03-01T22:15:17.013Z,30.107
2023-03-01T22:20:17.001Z,30.119
2023-03-01T22:25:17.475Z,30.124
2023-03-01T22:30:17.016Z,30.121
2023-03-01T22:35:17.104Z,30.118
2023-03-01T22:40:17.111Z,30.122
2023-03-01T22:45:17.052Z,30.116
2023-03-01T22:50:17.122Z,30.113
2023-03-01T22:55:17.037Z,30.107
2023-03-01T23:00:17.083Z,30.106
2023-03-01T23:05:17.033Z,30.106
2023-03-01T23:10:17.090Z,30.093
2023-03-01T23:15:17.169Z,30.098
2023-03-01T23:20:17.181Z,30.122
2023-03-01T23:25:17.060Z,30.129
2023-03-01T23:30:17.147Z,30.127
2023-03-01T23:35:17.308Z,30.135
2023-03-01T23:40:17.173Z,30.146
2023-03-01T23:45:17.126Z,30.134
2023-03-01T23:50:17.286Z,30.134
2023-03-01T23:55:17.145Z,30.137
